Time;durP1;ratioP1;P1;durP2;ratioP2;P2;SDS_P1;SDS_P2;PMS_P1;PMS_P2;Temp;Humidity;BMP_temperature;BMP_pressure;BME280_temperature;BME280_humidity;BME280_pressure;Samples;Min_cycle;Max_cycle;Signal;HPM_P1;HPM_P2
2022/03/08 00:01:36;;;;;;;11.23;8.23;;;3.90;99.90;;;;;;5054641;28;20233;-71
2022/03/08 00:04:03;;;;;;;12.85;8.98;;;3.90;99.90;;;;;;5054468;28;20290;-70
2022/03/08 00:06:30;;;;;;;10.23;8.68;;;3.90;99.90;;;;;;5055623;28;20265;-70
2022/03/08 00:08:57;;;;;;;13.48;8.43;;;3.90;99.90;;;;;;5055448;28;20210;-71
2022/03/08 00:11:24;;;;;;;9.63;8.20;;;4.10;99.90;;;;;;5054200;28;20302;-69
2022/03/08 00:13:52;;;;;;;11.75;8.90;;;3.90;99.90;;;;;;5054697;28;20211;-71
2022/03/08 00:16:20;;;;;;;9.75;8.60;;;3.90;99.90;;;;;;5055168;28;20227;-72
2022/03/08 00:18:48;;;;;;;11.50;8.45;;;3.90;99.90;;;;;;5055052;28;20246;-71
2022/03/08 00:21:16;;;;;;;12.00;8.40;;;3.80;99.90;;;;;;5053996;28;20222;-72
2022/03/08 00:23:43;;;;;;;14.75;8.82;;;3.80;99.90;;;;;;5055079;28;20191;-70
2022/03/08 00:26:10;;;;;;;13.57;9.40;;;3.70;99.90;;;;;;5055422;28;20269;-71
2022/03/08 00:28:37;;;;;;;10.30;8.40;;;3.70;99.90;;;;;;5054916;28;20290;-72
2022/03/08 00:31:04;;;;;;;12.27;8.40;;;3.70;99.90;;;;;;5051993;28;20265;-71
2022/03/08 00:33:33;;;;;;;16.02;9.30;;;3.70;99.90;;;;;;5055342;28;20227;-71
2022/03/08 00:36:00;;;;;;;10.38;9.23;;;3.70;99.90;;;;;;5054321;28;20247;-72
2022/03/08 00:38:27;;;;;;;15.65;9.93;;;3.60;99.90;;;;;;5054930;28;20669;-69
2022/03/08 00:40:53;;;;;;;17.42;10.77;;;3.60;99.90;;;;;;5052557;28;20219;-70
2022/03/08 00:43:27;;;;;;;17.27;10.65;;;3.50;99.90;;;;;;5054682;28;20195;-71
2022/03/08 00:45:54;;;;;;;18.58;10.52;;;3.40;99.90;;;;;;5054369;28;20286;-71
2022/03/08 00:48:21;;;;;;;15.27;10.75;;;3.40;99.90;;;;;;5054932;28;20287;-72
2022/03/08 00:50:50;;;;;;;15.38;10.02;;;3.30;99.90;;;;;;5053535;28;20278;-72
2022/03/08 00:53:18;;;;;;;13.23;9.93;;;3.20;99.90;;;;;;5054350;28;20626;-71
2022/03/08 00:55:45;;;;;;;11.07;7.93;;;3.20;99.90;;;;;;5054593;28;20213;-72
2022/03/08 00:58:12;;;;;;;11.32;9.02;;;3.30;99.90;;;;;;5054675;28;20199;-70
2022/03/08 01:00:41;;;;;;;18.80;9.55;;;3.40;99.90;;;;;;5053186;28;20212;-71
2022/03/08 01:03:08;;;;;;;12.25;9.63;;;3.30;99.90;;;;;;5054192;28;20228;-70
2022/03/08 01:05:37;;;;;;;11.00;9.25;;;3.40;99.90;;;;;;5054760;28;20226;-72
2022/03/08 01:08:06;;;;;;;17.73;10.68;;;3.30;99.90;;;;;;5054757;28;20299;-70
2022/03/08 01:10:34;;;;;;;13.18;10.68;;;3.40;99.90;;;;;;5053837;28;20282;-71
2022/03/08 01:13:01;;;;;;;15.23;10.07;;;3.30;99.90;;;;;;5055405;28;20254;-71
2022/03/08 01:15:29;;;;;;;15.68;9.73;;;3.30;99.90;;;;;;5053923;28;20287;-70
2022/03/08 01:17:56;;;;;;;13.05;9.30;;;3.40;99.90;;;;;;5054304;28;20593;-69
2022/03/08 01:20:24;;;;;;;12.05;9.52;;;3.40;99.90;;;;;;5053745;28;20211;-71
2022/03/08 01:22:51;;;;;;;13.00;9.52;;;3.40;99.90;;;;;;5053273;28;20298;-73
2022/03/08 01:25:21;;;;;;;12.73;10.60;;;3.50;99.90;;;;;;5053816;28;20199;-72
2022/03/08 01:27:48;;;;;;;13.98;10.00;;;3.50;99.90;;;;;;5053242;28;20207;-71
2022/03/08 01:30:17;;;;;;;21.30;10.50;;;3.60;99.90;;;;;;5039975;28;20591;-70
2022/03/08 01:32:44;;;;;;;15.10;9.52;;;3.40;99.90;;;;;;5053506;28;20306;-70
2022/03/08 01:35:12;;;;;;;14.48;10.52;;;3.30;99.90;;;;;;5053685;28;20294;-71
2022/03/08 01:37:39;;;;;;;17.10;11.25;;;3.40;99.90;;;;;;5053463;28;20305;-71
2022/03/08 01:40:08;;;;;;;18.27;9.05;;;3.30;99.90;;;;;;5052980;28;20204;-71
2022/03/08 01:42:40;;;;;;;14.10;10.75;;;3.30;99.90;;;;;;5053135;28;20216;-70
2022/03/08 01:45:08;;;;;;;12.52;9.05;;;3.30;99.90;;;;;;5041679;28;20257;-71
2022/03/08 01:47:35;;;;;;;15.57;11.00;;;3.20;99.90;;;;;;5050327;28;20242;-73
2022/03/08 01:50:02;;;;;;;14.70;9.75;;;3.20;99.90;;;;;;5042673;28;20658;-72
2022/03/08 01:52:29;;;;;;;14.18;10.02;;;3.20;99.90;;;;;;5052797;28;20231;-70
2022/03/08 01:54:56;;;;;;;15.38;9.50;;;3.10;99.90;;;;;;5053023;28;20687;-71
2022/03/08 01:57:25;;;;;;;12.63;9.40;;;3.00;99.90;;;;;;5053325;28;20238;-71
2022/03/08 01:59:54;;;;;;;18.48;9.27;;;3.00;99.90;;;;;;5052322;28;20540;-70
2022/03/08 02:02:21;;;;;;;11.43;8.68;;;3.00;99.90;;;;;;5055587;28;20701;-71
2022/03/08 02:04:49;;;;;;;14.02;9.07;;;3.00;99.90;;;;;;5053098;28;20661;-71
2022/03/08 02:07:16;;;;;;;11.60;9.13;;;3.00;99.90;;;;;;5053422;28;20285;-70
2022/03/08 02:09:43;;;;;;;14.50;10.07;;;3.00;99.90;;;;;;5052108;28;20291;-71
2022/03/08 02:12:11;;;;;;;13.35;10.98;;;2.90;99.90;;;;;;5052540;28;20299;-71
2022/03/08 02:14:38;;;;;;;16.98;10.07;;;2.90;99.90;;;;;;5052220;28;20299;-72
2022/03/08 02:17:07;;;;;;;13.23;9.73;;;2.90;99.90;;;;;;5053405;28;20283;-71
2022/03/08 02:19:34;;;;;;;13.88;8.80;;;2.90;99.90;;;;;;5052369;28;20202;-71
2022/03/08 02:22:02;;;;;;;13.00;9.15;;;2.90;99.90;;;;;;5052382;28;20227;-70
2022/03/08 02:24:29;;;;;;;13.63;9.50;;;2.90;99.90;;;;;;5053504;28;20241;-70
2022/03/08 02:26:56;;;;;;;19.23;9.25;;;2.80;99.90;;;;;;5052675;28;20244;-70
2022/03/08 02:29:23;;;;;;;13.50;9.82;;;2.80;99.90;;;;;;5052818;28;20213;-71
2022/03/08 02:31:50;;;;;;;12.50;8.35;;;2.80;99.90;;;;;;5051763;28;20212;-72
2022/03/08 02:34:18;;;;;;;12.38;8.95;;;2.90;99.90;;;;;;5052971;28;20286;-71
2022/03/08 02:37:07;;;;;;;15.75;9.15;;;2.90;99.90;;;;;;5051911;28;20239;-69
2022/03/08 02:39:34;;;;;;;14.43;9.32;;;2.80;99.90;;;;;;5052230;28;20210;-70
2022/03/08 02:42:02;;;;;;;13.48;9.77;;;2.90;99.90;;;;;;5051343;28;20233;-71
2022/03/08 02:44:29;;;;;;;14.63;9.30;;;2.90;99.90;;;;;;5052513;28;20200;-70
2022/03/08 02:46:57;;;;;;;14.27;10.30;;;2.90;99.90;;;;;;5052771;28;20271;-71
2022/03/08 02:49:24;;;;;;;12.98;8.40;;;2.90;99.90;;;;;;5052803;28;20214;-73
2022/03/08 02:51:51;;;;;;;15.93;9.40;;;2.80;99.90;;;;;;5051708;28;20223;-72
2022/03/08 02:54:19;;;;;;;18.33;9.93;;;2.70;99.90;;;;;;5054640;28;20619;-70
2022/03/08 02:56:48;;;;;;;19.50;11.27;;;2.60;99.90;;;;;;5053635;28;20207;-71
2022/03/08 02:59:21;;;;;;;16.50;10.48;;;2.70;99.90;;;;;;5053832;28;20226;-71
2022/03/08 03:01:48;;;;;;;18.10;11.32;;;2.70;99.90;;;;;;5053184;28;20254;-70
2022/03/08 03:04:15;;;;;;;12.68;7.80;;;2.70;99.90;;;;;;5056425;28;20190;-72
2022/03/08 03:06:42;;;;;;;13.95;7.63;;;2.70;99.90;;;;;;5055731;28;20229;-71
2022/03/08 03:09:09;;;;;;;8.18;7.05;;;2.70;99.90;;;;;;5056723;28;20203;-71
2022/03/08 03:11:38;;;;;;;11.73;8.45;;;2.70;99.90;;;;;;5055625;28;20224;-70
2022/03/08 03:14:05;;;;;;;12.35;7.90;;;2.70;99.90;;;;;;5056750;28;20200;-71
2022/03/08 03:16:32;;;;;;;14.52;8.70;;;2.80;99.90;;;;;;5056392;28;20228;-71
2022/03/08 03:18:58;;;;;;;11.23;8.27;;;2.80;99.90;;;;;;5055459;28;20257;-70
2022/03/08 03:21:25;;;;;;;13.48;7.57;;;2.70;99.90;;;;;;5055639;28;20318;-70
2022/03/08 03:23:52;;;;;;;10.73;8.30;;;2.60;99.90;;;;;;5054406;28;20257;-71
2022/03/08 03:26:19;;;;;;;18.13;8.77;;;2.60;99.90;;;;;;5055908;28;20200;-73
2022/03/08 03:28:50;;;;;;;8.40;6.70;;;2.60;99.90;;;;;;5056016;28;20283;-71
2022/03/08 03:31:19;;;;;;;8.35;6.75;;;2.60;99.90;;;;;;5055331;28;20433;-71
2022/03/08 03:33:46;;;;;;;9.70;5.95;;;2.50;99.90;;;;;;5054320;28;20196;-72
2022/03/08 03:36:13;;;;;;;10.55;6.82;;;2.50;99.90;;;;;;5055808;28;20214;-71
2022/03/08 03:38:41;;;;;;;7.60;6.00;;;2.50;99.90;;;;;;5055826;28;20233;-72
2022/03/08 03:41:08;;;;;;;9.75;6.63;;;2.60;99.90;;;;;;5054712;28;20238;-70
2022/03/08 03:43:35;;;;;;;10.32;7.82;;;2.60;99.90;;;;;;5055949;28;20203;-70
2022/03/08 03:46:04;;;;;;;14.30;6.25;;;2.50;99.90;;;;;;5055386;28;20196;-71
2022/03/08 03:48:32;;;;;;;11.48;6.97;;;2.50;99.90;;;;;;5055994;28;20646;-70
2022/03/08 03:50:58;;;;;;;10.05;6.93;;;2.40;99.90;;;;;;5055199;28;20295;-71
2022/03/08 03:53:26;;;;;;;8.68;6.60;;;2.40;99.90;;;;;;5055597;28;20625;-70
2022/03/08 03:55:53;;;;;;;12.10;6.93;;;2.40;99.90;;;;;;5050868;28;20714;-72
2022/03/08 03:58:20;;;;;;;9.25;6.47;;;2.30;99.90;;;;;;5055348;28;20231;-70
2022/03/08 04:00:47;;;;;;;11.82;6.40;;;2.30;99.90;;;;;;5054505;28;20222;-70
2022/03/08 04:03:18;;;;;;;9.40;6.57;;;2.20;99.90;;;;;;5055127;28;20234;-71
2022/03/08 04:05:46;;;;;;;9.02;5.95;;;2.10;99.90;;;;;;5054937;28;20642;-71
2022/03/08 04:08:20;;;;;;;16.10;6.78;;;2.10;99.90;;;;;;5055514;28;20357;-72
2022/03/08 04:10:47;;;;;;;9.65;6.32;;;2.00;99.90;;;;;;5053847;28;20218;-72
2022/03/08 04:13:15;;;;;;;10.88;7.43;;;2.00;99.90;;;;;;5054727;28;20196;-71
2022/03/08 04:15:42;;;;;;;10.27;6.85;;;2.00;99.90;;;;;;5054213;28;20215;-70
2022/03/08 04:18:09;;;;;;;11.23;7.78;;;2.00;99.90;;;;;;5055406;28;20210;-69
2022/03/08 04:20:37;;;;;;;10.52;7.15;;;2.00;99.90;;;;;;5054820;28;20290;-70
2022/03/08 04:23:04;;;;;;;7.63;5.55;;;1.90;99.90;;;;;;5054992;28;20227;-70
2022/03/08 04:25:32;;;;;;;10.60;7.07;;;2.10;99.90;;;;;;5054966;28;20200;-70
2022/03/08 04:27:59;;;;;;;8.25;6.47;;;2.00;99.90;;;;;;5054919;28;20294;-72
2022/03/08 04:30:26;;;;;;;10.82;6.53;;;2.00;99.90;;;;;;5053265;28;20204;-72
2022/03/08 04:32:52;;;;;;;6.90;5.07;;;2.10;99.90;;;;;;5055113;28;20326;-69
2022/03/08 04:35:19;;;;;;;16.60;6.80;;;2.00;99.90;;;;;;5053064;28;20218;-70
2022/03/08 04:37:48;;;;;;;12.23;5.22;;;1.90;99.90;;;;;;5055180;28;20855;-69
2022/03/08 04:40:16;;;;;;;7.55;5.40;;;2.00;99.90;;;;;;5054436;28;20208;-71
2022/03/08 04:42:44;;;;;;;8.73;6.10;;;2.10;99.90;;;;;;5055365;28;20235;-71
2022/03/08 04:45:12;;;;;;;8.27;6.43;;;1.90;99.90;;;;;;5059436;28;20200;-69
2022/03/08 04:47:39;;;;;;;6.85;5.65;;;1.90;99.90;;;;;;5058259;28;20203;-71
2022/03/08 04:50:08;;;;;;;7.95;6.32;;;1.90;99.90;;;;;;5056471;28;20190;-72
2022/03/08 04:52:36;;;;;;;7.40;5.38;;;1.90;99.90;;;;;;5054953;28;20311;-71
2022/03/08 04:55:05;;;;;;;9.77;6.50;;;1.80;99.90;;;;;;5055059;28;20597;-72
2022/03/08 04:57:32;;;;;;;10.10;6.32;;;1.80;99.90;;;;;;5054633;28;20235;-70
2022/03/08 04:59:59;;;;;;;7.18;5.75;;;1.70;99.90;;;;;;5054091;28;20203;-69
2022/03/08 05:02:26;;;;;;;7.50;5.88;;;1.70;99.90;;;;;;5054718;28;20326;-70
2022/03/08 05:04:53;;;;;;;8.48;6.03;;;1.70;99.90;;;;;;5054382;28;20296;-71
2022/03/08 05:07:20;;;;;;;6.35;5.00;;;1.70;99.90;;;;;;5053936;28;20199;-71
2022/03/08 05:09:47;;;;;;;6.65;5.90;;;1.60;99.90;;;;;;5052536;28;20314;-71
2022/03/08 05:12:17;;;;;;;7.85;5.53;;;1.70;99.90;;;;;;5053826;28;20616;-70
2022/03/08 05:14:43;;;;;;;6.90;5.30;;;1.70;99.90;;;;;;5052667;28;20288;-72
2022/03/08 05:17:10;;;;;;;6.80;5.10;;;1.70;99.90;;;;;;5054052;28;20196;-72
2022/03/08 05:19:37;;;;;;;7.88;5.40;;;1.90;99.90;;;;;;5045851;28;20203;-71
2022/03/08 05:22:05;;;;;;;12.43;6.05;;;1.80;99.90;;;;;;5053698;28;20315;-69
2022/03/08 05:24:32;;;;;;;5.10;4.55;;;1.70;99.90;;;;;;5053242;28;20211;-71
2022/03/08 05:26:59;;;;;;;8.32;5.55;;;1.70;99.90;;;;;;5053487;28;20210;-70
2022/03/08 05:29:28;;;;;;;14.73;5.75;;;1.70;99.90;;;;;;5053521;28;20283;-69
2022/03/08 05:31:55;;;;;;;14.02;6.82;;;1.70;99.90;;;;;;5053428;28;20325;-69
2022/03/08 05:34:21;;;;;;;5.15;4.68;;;1.70;99.90;;;;;;5053410;28;20646;-70
2022/03/08 05:36:48;;;;;;;6.60;4.72;;;1.70;99.90;;;;;;5053113;28;20207;-71
2022/03/08 05:39:16;;;;;;;9.73;5.88;;;1.70;99.90;;;;;;5053282;28;20211;-70
2022/03/08 05:41:42;;;;;;;5.90;5.30;;;1.70;99.90;;;;;;5052280;28;20701;-73
2022/03/08 05:44:10;;;;;;;6.13;4.88;;;1.80;99.90;;;;;;5053230;28;20274;-72
2022/03/08 05:46:38;;;;;;;7.68;4.95;;;1.80;99.90;;;;;;5049837;28;20298;-71
2022/03/08 05:49:06;;;;;;;6.30;4.80;;;1.80;99.90;;;;;;5051927;28;20559;-71
2022/03/08 05:51:33;;;;;;;7.63;6.25;;;1.70;99.90;;;;;;5052462;28;20234;-70
2022/03/08 05:54:01;;;;;;;5.60;4.55;;;1.70;99.90;;;;;;5053118;28;20200;-72
2022/03/08 05:56:27;;;;;;;10.55;5.65;;;1.70;99.90;;;;;;5053261;28;20207;-70
2022/03/08 05:58:55;;;;;;;7.72;5.90;;;1.80;99.90;;;;;;5052155;28;20227;-70
2022/03/08 06:01:21;;;;;;;11.57;6.80;;;1.80;99.90;;;;;;5057714;28;20299;-69
2022/03/08 06:03:50;;;;;;;12.80;6.90;;;1.80;99.90;;;;;;5052618;28;20303;-69
2022/03/08 06:06:17;;;;;;;9.02;6.20;;;1.90;99.90;;;;;;5052765;28;20233;-70
2022/03/08 06:08:44;;;;;;;8.40;5.97;;;1.90;99.90;;;;;;5053075;28;20663;-67
2022/03/08 06:11:10;;;;;;;9.15;5.50;;;2.00;99.90;;;;;;5051874;28;20770;-66
2022/03/08 06:13:37;;;;;;;8.82;5.82;;;1.80;99.90;;;;;;5053060;28;20305;-67
2022/03/08 06:16:05;;;;;;;9.00;7.03;;;2.00;99.90;;;;;;5052563;28;20274;-67
2022/03/08 06:18:32;;;;;;;11.77;8.15;;;2.00;99.90;;;;;;5052959;28;20235;-69
2022/03/08 06:21:00;;;;;;;8.60;5.60;;;2.10;99.90;;;;;;5051781;28;20202;-66
2022/03/08 06:23:28;;;;;;;12.32;5.50;;;2.10;99.90;;;;;;5052296;28;20313;-68
2022/03/08 06:25:55;;;;;;;7.65;5.70;;;2.10;99.90;;;;;;5044535;28;20210;-69
2022/03/08 06:28:22;;;;;;;17.17;6.30;;;2.10;99.90;;;;;;5046734;28;20199;-67
2022/03/08 06:30:49;;;;;;;10.20;5.95;;;2.10;99.90;;;;;;5048492;28;20898;-69
2022/03/08 06:33:16;;;;;;;13.23;6.68;;;2.10;99.90;;;;;;5047316;28;20606;-70
2022/03/08 06:35:42;;;;;;;9.07;5.85;;;2.20;99.90;;;;;;5051789;28;20215;-69
2022/03/08 06:38:11;;;;;;;8.82;5.30;;;2.20;99.90;;;;;;5050954;28;20287;-68
2022/03/08 06:40:38;;;;;;;13.13;6.35;;;2.30;99.90;;;;;;5051320;28;20739;-69
2022/03/08 06:43:13;;;;;;;9.52;6.45;;;2.40;99.90;;;;;;5046994;28;20259;-68
2022/03/08 06:45:40;;;;;;;9.07;6.43;;;2.30;99.90;;;;;;5052051;28;20230;-68
2022/03/08 06:48:08;;;;;;;12.70;5.70;;;2.40;99.90;;;;;;5051972;28;20282;-70
2022/03/08 06:50:35;;;;;;;9.10;6.55;;;2.50;99.90;;;;;;5051471;28;20203;-72
2022/03/08 06:53:02;;;;;;;7.43;5.10;;;2.60;99.90;;;;;;5049725;28;20306;-69
2022/03/08 06:55:30;;;;;;;10.73;5.72;;;2.80;99.90;;;;;;5048349;28;20286;-68
2022/03/08 06:57:57;;;;;;;9.70;4.97;;;3.10;99.90;;;;;;5052122;28;20239;-68
2022/03/08 07:00:24;;;;;;;12.45;6.00;;;3.70;99.90;;;;;;5052524;28;20207;-69
2022/03/08 07:02:51;;;;;;;5.28;4.30;;;4.90;99.90;;;;;;5052038;28;20234;-69
2022/03/08 07:05:18;;;;;;;6.53;4.95;;;6.20;99.90;;;;;;5052188;28;20229;-67
2022/03/08 07:07:45;;;;;;;8.32;5.40;;;7.40;98.80;;;;;;5051928;28;20319;-69
2022/03/08 07:10:13;;;;;;;9.48;4.78;;;8.50;95.10;;;;;;5050242;28;20250;-69
2022/03/08 07:12:41;;;;;;;7.05;4.60;;;9.40;92.30;;;;;;5052042;28;20241;-68
2022/03/08 07:15:09;;;;;;;6.05;5.15;;;10.70;88.90;;;;;;5051670;28;20214;-68
2022/03/08 07:17:36;;;;;;;6.45;5.18;;;11.50;83.60;;;;;;5052037;28;20229;-69
2022/03/08 07:20:03;;;;;;;10.73;5.45;;;12.10;80.70;;;;;;5050337;28;20294;-70
2022/03/08 07:22:30;;;;;;;7.75;5.35;;;12.60;78.50;;;;;;5050888;28;20341;-67
2022/03/08 07:24:57;;;;;;;5.35;4.80;;;12.80;75.20;;;;;;5051536;28;20204;-71
2022/03/08 07:27:24;;;;;;;9.70;4.82;;;13.60;74.20;;;;;;5052107;28;20200;-69
2022/03/08 07:29:52;;;;;;;7.47;5.22;;;14.10;71.70;;;;;;5050434;28;20283;-70
2022/03/08 07:32:20;;;;;;;9.50;5.93;;;14.20;70.30;;;;;;5051283;28;20310;-69
2022/03/08 07:34:47;;;;;;;9.10;5.32;;;14.60;69.80;;;;;;5049575;28;20602;-75
2022/03/08 07:37:14;;;;;;;7.90;5.60;;;14.60;68.80;;;;;;5050748;28;20236;-71
2022/03/08 07:39:41;;;;;;;8.43;4.90;;;15.00;68.70;;;;;;5050949;28;20205;-71
2022/03/08 07:42:08;;;;;;;6.03;5.43;;;15.30;67.60;;;;;;5050850;28;20504;-69
2022/03/08 07:44:36;;;;;;;6.60;5.22;;;15.60;66.90;;;;;;5046461;28;20301;-68
2022/03/08 07:47:06;;;;;;;7.33;4.93;;;15.60;65.90;;;;;;5036006;28;20202;-68
2022/03/08 07:49:33;;;;;;;8.18;5.45;;;15.70;65.20;;;;;;5034990;28;20503;-69
2022/03/08 07:51:59;;;;;;;9.33;5.00;;;15.80;65.00;;;;;;5056842;28;20300;-69
2022/03/08 07:54:27;;;;;;;7.67;4.40;;;16.20;64.60;;;;;;5055844;28;20442;-68
2022/03/08 07:56:53;;;;;;;7.47;5.03;;;16.60;63.70;;;;;;5054804;28;20482;-68
2022/03/08 07:59:20;;;;;;;7.80;6.00;;;16.80;63.10;;;;;;5055376;28;20489;-69
2022/03/08 08:01:47;;;;;;;10.90;6.30;;;17.40;61.50;;;;;;5054084;28;20545;-72
2022/03/08 08:04:15;;;;;;;10.17;5.87;;;17.50;60.20;;;;;;5055144;28;20557;-70
2022/03/08 08:06:42;;;;;;;8.93;6.37;;;18.20;59.10;;;;;;5053882;28;20451;-69
2022/03/08 08:09:09;;;;;;;7.70;4.90;;;18.40;57.70;;;;;;5054061;28;20479;-68
2022/03/08 08:11:36;;;;;;;6.50;5.50;;;18.90;57.50;;;;;;5051000;28;20506;-70
2022/03/08 08:14:03;;;;;;;7.20;5.57;;;18.70;56.90;;;;;;5044576;28;20449;-70
2022/03/08 08:16:30;;;;;;;7.53;5.77;;;18.30;57.00;;;;;;5050522;28;20527;-69
2022/03/08 08:18:58;;;;;;;9.83;5.27;;;18.20;57.30;;;;;;5054754;28;20935;-69
2022/03/08 08:21:27;;;;;;;7.87;6.53;;;17.80;58.00;;;;;;5054214;28;20503;-68
2022/03/08 08:23:54;;;;;;;8.47;6.77;;;17.80;57.80;;;;;;5055024;28;20558;-69
2022/03/08 08:26:21;;;;;;;7.03;5.63;;;17.60;57.70;;;;;;5055102;28;20449;-69
2022/03/08 08:28:48;;;;;;;7.07;5.97;;;17.50;57.20;;;;;;5054628;28;20525;-69
2022/03/08 08:31:16;;;;;;;8.57;5.90;;;18.00;57.00;;;;;;5054476;28;20515;-69
2022/03/08 08:33:42;;;;;;;6.47;4.67;;;18.30;55.90;;;;;;5054695;28;20445;-67
2022/03/08 08:36:09;;;;;;;6.37;5.13;;;18.10;55.30;;;;;;5054293;28;20544;-68
2022/03/08 08:38:38;;;;;;;8.93;5.13;;;18.20;56.50;;;;;;5054498;28;20480;-67
2022/03/08 08:41:05;;;;;;;9.33;5.63;;;18.40;55.70;;;;;;5048998;28;20969;-68
2022/03/08 08:43:32;;;;;;;8.37;5.50;;;18.50;55.70;;;;;;5054411;28;20474;-69
2022/03/08 08:45:58;;;;;;;9.10;5.80;;;19.30;55.40;;;;;;5053606;28;20594;-70
2022/03/08 08:48:26;;;;;;;10.27;6.00;;;19.50;54.70;;;;;;5054755;28;20473;-70
2022/03/08 08:50:53;;;;;;;7.03;6.33;;;19.70;54.40;;;;;;5053573;28;20459;-69
2022/03/08 08:53:22;;;;;;;11.37;6.33;;;18.80;54.00;;;;;;5048311;28;20437;-70
2022/03/08 08:55:50;;;;;;;9.73;6.53;;;18.20;54.80;;;;;;5051465;28;20446;-70
2022/03/08 08:58:17;;;;;;;7.57;5.10;;;18.40;56.00;;;;;;5054256;28;20481;-68
2022/03/08 09:00:45;;;;;;;9.47;6.90;;;17.90;55.70;;;;;;5044470;28;20822;-68
2022/03/08 09:03:14;;;;;;;13.67;10.43;;;17.50;56.50;;;;;;5053855;28;20941;-67
2022/03/08 09:05:42;;;;;;;7.43;5.10;;;17.70;56.80;;;;;;5045533;28;20495;-69
2022/03/08 09:08:10;;;;;;;7.43;6.20;;;17.70;56.30;;;;;;5054020;28;20463;-69
2022/03/08 09:10:36;;;;;;;7.40;6.30;;;18.00;56.40;;;;;;5047915;28;20848;-71
2022/03/08 09:13:05;;;;;;;6.53;4.80;;;18.30;56.10;;;;;;5045842;28;20764;-69
2022/03/08 09:15:32;;;;;;;10.30;5.40;;;18.30;55.30;;;;;;5053792;28;20462;-69
2022/03/08 09:18:00;;;;;;;8.20;4.80;;;18.60;55.80;;;;;;5053775;28;20461;-69
2022/03/08 09:20:27;;;;;;;7.20;5.43;;;18.70;55.50;;;;;;5053064;28;20964;-71
2022/03/08 09:22:56;;;;;;;6.60;5.13;;;18.70;54.60;;;;;;5054479;28;20560;-70
2022/03/08 09:25:22;;;;;;;9.40;4.97;;;19.10;54.00;;;;;;5055722;28;20492;-69
2022/03/08 09:27:49;;;;;;;9.50;5.17;;;19.20;54.10;;;;;;5054344;28;20496;-69
2022/03/08 09:30:18;;;;;;;7.63;5.97;;;19.80;54.10;;;;;;5052969;28;20445;-69
2022/03/08 09:32:45;;;;;;;7.33;4.77;;;19.90;53.50;;;;;;5053368;28;20541;-69
2022/03/08 09:35:12;;;;;;;8.20;4.63;;;20.10;53.30;;;;;;5053104;28;20544;-70
2022/03/08 09:37:39;;;;;;;6.63;5.03;;;19.90;53.20;;;;;;5053132;28;20443;-69
2022/03/08 09:40:07;;;;;;;6.40;5.30;;;20.40;52.70;;;;;;5052881;28;20450;-68
2022/03/08 09:42:34;;;;;;;9.60;5.57;;;20.00;52.90;;;;;;5053230;28;20494;-69
2022/03/08 09:45:02;;;;;;;6.97;5.10;;;19.10;53.30;;;;;;5052538;28;20934;-70
2022/03/08 09:47:30;;;;;;;9.80;5.50;;;19.60;53.90;;;;;;5055115;28;20447;-68
2022/03/08 09:49:57;;;;;;;8.43;5.70;;;20.30;53.80;;;;;;5052231;28;20465;-68
2022/03/08 09:52:24;;;;;;;10.47;5.23;;;20.50;52.80;;;;;;5052865;28;20539;-68
2022/03/08 09:54:51;;;;;;;7.00;4.57;;;21.10;51.60;;;;;;5053111;28;20518;-69
2022/03/08 09:57:18;;;;;;;6.60;5.30;;;21.20;51.00;;;;;;5053291;28;20446;-69
2022/03/08 09:59:45;;;;;;;5.10;4.60;;;20.80;51.10;;;;;;5051158;28;20470;-68
2022/03/08 10:02:14;;;;;;;9.67;5.53;;;21.00;50.70;;;;;;5037887;28;20466;-67
2022/03/08 10:04:42;;;;;;;8.40;6.63;;;20.60;50.60;;;;;;5052174;28;20489;-67
2022/03/08 10:07:10;;;;;;;6.53;4.70;;;20.60;51.10;;;;;;5053210;28;20808;-70
2022/03/08 10:09:38;;;;;;;6.50;4.23;;;20.90;50.20;;;;;;5052200;28;20450;-69
2022/03/08 10:12:16;;;;;;;17.00;5.07;;;20.50;50.30;;;;;;5044316;28;20568;-69
2022/03/08 10:14:44;;;;;;;10.80;5.17;;;19.90;50.80;;;;;;5052507;28;20995;-71
2022/03/08 10:17:31;;;;;;;8.37;4.70;;;19.50;51.30;;;;;;5052887;28;20450;-70
2022/03/08 10:20:00;;;;;;;4.60;3.90;;;19.20;51.80;;;;;;5051879;28;20464;-69
2022/03/08 10:22:30;;;;;;;6.17;4.10;;;18.50;52.00;;;;;;5052596;28;20503;-70
2022/03/08 10:25:13;;;;;;;4.77;4.30;;;18.50;52.50;;;;;;5052498;28;20493;-71
2022/03/08 10:27:43;;;;;;;6.07;3.53;;;18.50;53.10;;;;;;5052228;28;20879;-70
2022/03/08 10:30:13;;;;;;;6.00;4.57;;;19.10;51.80;;;;;;5051803;28;20926;-71
2022/03/08 10:32:40;;;;;;;4.63;3.90;;;18.10;52.30;;;;;;5052104;28;20566;-69
2022/03/08 10:35:11;;;;;;;6.30;3.70;;;18.20;53.20;;;;;;5052326;28;20490;-70
2022/03/08 10:37:40;;;;;;;5.90;3.43;;;18.20;53.60;;;;;;5052499;28;20441;-70
2022/03/08 10:40:09;;;;;;;5.60;3.40;;;18.70;53.30;;;;;;5051290;28;20529;-69
2022/03/08 10:42:38;;;;;;;7.07;4.40;;;18.40;53.00;;;;;;5052145;28;20528;-70
2022/03/08 10:45:07;;;;;;;5.07;3.20;;;17.80;53.40;;;;;;5044062;28;20566;-71
2022/03/08 10:47:42;;;;;;;5.60;4.20;;;17.40;54.30;;;;;;5052169;28;20472;-69
2022/03/08 10:50:12;;;;;;;6.93;4.90;;;17.10;55.20;;;;;;5052003;28;20477;-71
2022/03/08 10:52:41;;;;;;;5.22;4.25;;;16.50;56.10;;;;;;5051405;28;20477;-69
2022/03/08 10:55:13;;;;;;;13.52;4.82;;;16.10;56.80;;;;;;5052796;28;20195;-70
2022/03/08 10:57:42;;;;;;;4.40;3.70;;;15.40;58.40;;;;;;5052476;28;20195;-70
2022/03/08 11:00:15;;;;;;;6.53;4.13;;;14.80;58.90;;;;;;5049498;28;20593;-69
2022/03/08 11:02:53;;;;;;;8.25;4.78;;;14.00;59.80;;;;;;5051191;28;20251;-70
2022/03/08 11:05:22;;;;;;;7.63;5.63;;;13.20;62.70;;;;;;5050724;28;20226;-68
2022/03/08 11:07:50;;;;;;;5.25;4.13;;;13.10;65.10;;;;;;5043278;28;20285;-67
2022/03/08 11:10:18;;;;;;;3.58;3.05;;;12.80;64.80;;;;;;5051780;28;20297;-69
2022/03/08 11:12:46;;;;;;;6.95;3.10;;;12.60;64.80;;;;;;5051995;28;20280;-68
2022/03/08 11:15:15;;;;;;;9.95;3.47;;;12.50;65.60;;;;;;5051826;28;20218;-70
2022/03/08 11:17:44;;;;;;;8.55;3.90;;;12.30;66.00;;;;;;5051100;28;20652;-69
2022/03/08 11:20:13;;;;;;;6.90;3.50;;;12.20;67.20;;;;;;5051454;28;20665;-68
2022/03/08 11:22:42;;;;;;;4.78;3.30;;;12.10;67.40;;;;;;5050921;28;20340;-68
2022/03/08 11:25:11;;;;;;;6.43;4.35;;;11.90;68.70;;;;;;5054424;28;20289;-69
2022/03/08 11:27:41;;;;;;;4.55;3.03;;;12.00;69.10;;;;;;5055404;28;20294;-68
2022/03/08 11:30:12;;;;;;;4.03;3.20;;;11.90;69.70;;;;;;5055235;28;20206;-69
2022/03/08 11:32:47;;;;;;;4.50;3.13;;;12.10;69.60;;;;;;5055511;28;20280;-70
2022/03/08 11:35:23;;;;;;;5.47;3.00;;;12.00;70.30;;;;;;5055029;28;20359;-70
2022/03/08 11:37:52;;;;;;;6.63;3.75;;;12.10;69.60;;;;;;5054368;28;20205;-68
2022/03/08 11:40:20;;;;;;;3.50;2.90;;;11.90;69.70;;;;;;5054626;28;20207;-69
2022/03/08 11:42:51;;;;;;;4.75;2.90;;;11.80;70.00;;;;;;5054897;28;20221;-68
2022/03/08 11:45:24;;;;;;;2.85;2.42;;;11.90;70.30;;;;;;5056543;28;20225;-70
2022/03/08 11:47:57;;;;;;;3.08;2.60;;;11.70;68.00;;;;;;5055711;28;20225;-69
2022/03/08 11:50:27;;;;;;;3.78;2.03;;;11.50;66.90;;;;;;5047993;28;20286;-68
2022/03/08 11:53:09;;;;;;;4.85;2.58;;;11.60;67.50;;;;;;5052629;28;20323;-70
2022/03/08 11:55:37;;;;;;;2.55;1.98;;;11.50;68.10;;;;;;5049696;28;20632;-69
2022/03/08 11:58:07;;;;;;;3.63;1.90;;;11.60;68.20;;;;;;5050794;28;20282;-69
2022/03/08 12:00:38;;;;;;;4.40;1.90;;;11.50;68.30;;;;;;5054901;28;20237;-70
2022/03/08 12:03:09;;;;;;;4.40;2.35;;;11.50;68.10;;;;;;5053005;28;20228;-67
2022/03/08 12:06:04;;;;;;;3.60;2.08;;;11.60;67.40;;;;;;5051530;28;20211;-69
2022/03/08 12:09:01;;;;;;;3.65;2.15;;;11.60;68.40;;;;;;5054904;28;20209;-69
2022/03/08 12:11:52;;;;;;;3.00;1.88;;;11.60;66.80;;;;;;5053856;28;20600;-69
2022/03/08 12:14:21;;;;;;;4.70;3.00;;;11.70;65.90;;;;;;5051382;28;20678;-70
2022/03/08 12:16:49;;;;;;;2.85;1.83;;;11.90;65.50;;;;;;5053887;28;20287;-68
2022/03/08 12:19:22;;;;;;;3.63;1.98;;;12.00;66.10;;;;;;5047727;28;20653;-68
2022/03/08 12:21:56;;;;;;;7.15;6.57;;;11.80;66.40;;;;;;5052708;28;20236;-68
2022/03/08 12:24:25;;;;;;;4.38;3.35;;;11.70;66.20;;;;;;5054422;28;20667;-70
2022/03/08 12:27:01;;;;;;;3.83;2.70;;;11.80;66.30;;;;;;5052960;28;20628;-68
2022/03/08 12:29:30;;;;;;;6.45;2.88;;;11.90;67.10;;;;;;5053451;28;20298;-70
2022/03/08 12:32:39;;;;;;;4.32;2.50;;;11.90;65.60;;;;;;5054403;28;20252;-70
2022/03/08 12:35:12;;;;;;;9.52;4.55;;;11.70;63.80;;;;;;5045612;28;20245;-69
2022/03/08 12:37:45;;;;;;;18.15;13.63;;;11.50;64.50;;;;;;5054062;28;20480;-70
2022/03/08 12:40:27;;;;;;;7.78;3.97;;;11.50;63.20;;;;;;5052595;28;20736;-71
2022/03/08 12:43:00;;;;;;;4.97;2.10;;;11.50;64.50;;;;;;5052842;28;20558;-70
2022/03/08 12:45:30;;;;;;;4.32;2.25;;;11.50;65.50;;;;;;5052792;28;20221;-70
2022/03/08 12:48:00;;;;;;;5.45;2.60;;;11.40;64.50;;;;;;5054722;28;20217;-69
2022/03/08 12:50:30;;;;;;;2.67;2.28;;;11.40;63.80;;;;;;5053221;28;20209;-70
2022/03/08 12:52:59;;;;;;;3.63;2.47;;;11.40;63.70;;;;;;5054106;28;20702;-70
2022/03/08 12:55:29;;;;;;;4.15;2.25;;;11.40;63.90;;;;;;5054597;28;20243;-69